Time;durP1;ratioP1;P1;durP2;ratioP2;P2;SDS_P1;SDS_P2;PMS_P1;PMS_P2;Temp;Humidity;BMP_temperature;BMP_pressure;BME280_temperature;BME280_humidity;BME280_pressure;Samples;Min_cycle;Max_cycle;Signal;HPM_P1;HPM_P2
2022/09/03 00:01:36;;;;;;;4.50;1.30;;;;;;;12.94;86.68;101416.28;5032670;28;20905;-76
2022/09/03 00:04:12;;;;;;;4.40;1.60;;;;;;;12.97;86.76;101417.59;5033829;28;20439;-77
2022/09/03 00:06:46;;;;;;;3.50;1.23;;;;;;;12.99;86.78;101412.69;5037190;28;20435;-77
2022/09/03 00:09:21;;;;;;;3.90;1.60;;;;;;;12.93;87.09;101417.41;5039523;28;20491;-77
2022/09/03 00:11:52;;;;;;;5.37;2.13;;;;;;;12.91;86.76;101421.50;5047929;28;20488;-78
2022/09/03 00:14:22;;;;;;;4.53;1.50;;;;;;;12.80;87.52;101410.00;5052527;28;20416;-78
2022/09/03 00:16:52;;;;;;;4.37;1.47;;;;;;;12.72;87.67;101416.09;5050923;28;20439;-78
2022/09/03 00:19:24;;;;;;;4.10;1.80;;;;;;;12.66;88.11;101409.94;5050618;28;20494;-78
2022/09/03 00:21:57;;;;;;;4.70;1.43;;;;;;;12.75;88.27;101413.59;5047100;28;20424;-79
2022/09/03 00:24:28;;;;;;;4.00;1.40;;;;;;;12.74;87.54;101420.09;5043896;28;20427;-78
2022/09/03 00:27:00;;;;;;;5.00;1.70;;;;;;;12.80;87.31;101418.16;5042927;28;20439;-78
2022/09/03 00:29:33;;;;;;;4.17;1.53;;;;;;;12.80;87.39;101410.78;5043135;28;20455;-78
2022/09/03 00:32:06;;;;;;;4.20;1.50;;;;;;;12.59;87.48;101413.00;5041327;28;20427;-78
2022/09/03 00:34:38;;;;;;;3.93;1.17;;;;;;;12.71;87.16;101412.56;5040834;28;20449;-75
2022/09/03 00:37:07;;;;;;;7.20;1.50;;;;;;;12.74;87.39;101419.31;5041463;28;20534;-77
2022/09/03 00:39:33;;;;;;;4.20;1.30;;;;;;;12.79;87.17;101419.22;5041447;28;20478;-78
2022/09/03 00:42:13;;;;;;;5.43;1.30;;;;;;;12.83;86.74;101414.81;5039973;28;20454;-78
2022/09/03 00:45:10;;;;;;;6.97;1.73;;;;;;;12.79;86.44;101414.63;5039780;28;20490;-78
2022/09/03 00:47:47;;;;;;;4.37;1.33;;;;;;;12.79;86.64;101411.91;5038776;28;20435;-76
2022/09/03 00:50:25;;;;;;;4.60;1.63;;;;;;;12.80;86.05;101408.06;5035732;28;20435;-76
2022/09/03 00:53:02;;;;;;;4.90;1.70;;;;;;;12.77;86.57;101410.56;5035844;28;20470;-76
2022/09/03 00:55:37;;;;;;;10.00;1.27;;;;;;;12.78;86.99;101404.81;5035749;28;20561;-76
2022/09/03 00:58:25;;;;;;;3.47;1.10;;;;;;;12.79;86.68;101403.75;5035548;28;20497;-76
2022/09/03 01:00:52;;;;;;;3.70;1.43;;;;;;;12.80;87.30;101401.84;5035769;28;20428;-76
2022/09/03 01:03:27;;;;;;;4.30;1.30;;;;;;;12.85;87.33;101399.84;5035242;28;21009;-76
2022/09/03 01:06:17;;;;;;;3.57;1.30;;;;;;;12.85;87.00;101402.56;5035479;28;20431;-76
2022/09/03 01:08:58;;;;;;;4.30;1.03;;;;;;;12.83;86.63;101396.59;5035044;28;20471;-76
2022/09/03 01:11:35;;;;;;;3.67;0.97;;;;;;;12.84;86.25;101391.97;5035340;28;20474;-76
2022/09/03 01:14:12;;;;;;;5.90;1.20;;;;;;;12.85;86.02;101396.31;5034931;28;20517;-74
2022/09/03 01:16:47;;;;;;;4.13;1.03;;;;;;;12.87;85.57;101392.19;5035309;28;20432;-76
2022/09/03 01:19:35;;;;;;;3.57;1.10;;;;;;;12.97;85.67;101390.38;5034452;28;20491;-75
2022/09/03 01:22:23;;;;;;;3.90;1.13;;;;;;;12.96;85.42;101395.03;5035134;28;20546;-76
2022/09/03 01:25:12;;;;;;;3.50;0.90;;;;;;;13.05;84.42;101387.00;5034832;28;20431;-76
2022/09/03 01:27:48;;;;;;;4.83;1.40;;;;;;;13.00;84.55;101397.97;5034964;28;20458;-77
2022/09/03 01:30:18;;;;;;;5.40;1.50;;;;;;;13.08;84.04;101389.13;5035023;28;20426;-76
2022/09/03 01:32:53;;;;;;;2.87;0.60;;;;;;;13.08;83.67;101383.69;5035130;28;20427;-77
2022/09/03 01:35:26;;;;;;;3.57;0.80;;;;;;;13.11;82.68;101383.09;5036267;28;20847;-77
2022/09/03 01:38:04;;;;;;;3.30;0.93;;;;;;;13.13;82.67;101391.75;5035949;28;20467;-77
2022/09/03 01:40:39;;;;;;;3.30;1.00;;;;;;;13.23;82.63;101383.44;5035964;28;20426;-78
2022/09/03 01:43:31;;;;;;;3.23;0.70;;;;;;;13.27;81.98;101389.91;5035817;28;20419;-77
2022/09/03 01:46:04;;;;;;;2.90;0.70;;;;;;;13.30;81.71;101380.34;5035965;28;20454;-76
2022/09/03 01:48:47;;;;;;;3.80;1.33;;;;;;;13.33;81.27;101380.56;5035375;28;20464;-77
2022/09/03 01:51:19;;;;;;;3.83;1.27;;;;;;;13.28;81.59;101382.53;5035698;28;20424;-76
2022/09/03 01:54:04;;;;;;;4.47;0.90;;;;;;;13.26;82.10;101385.56;5034313;28;20431;-76
2022/09/03 01:56:45;;;;;;;3.50;1.10;;;;;;;13.29;82.86;101382.25;5034450;28;20777;-76
2022/09/03 01:59:20;;;;;;;4.40;1.07;;;;;;;13.30;82.58;101383.06;5033905;28;21000;-76
2022/09/03 02:01:53;;;;;;;5.07;1.67;;;;;;;13.40;82.71;101379.34;5034543;28;20435;-75
2022/09/03 02:04:23;;;;;;;3.70;0.93;;;;;;;13.38;82.51;101388.63;5034254;28;20435;-76
2022/09/03 02:06:51;;;;;;;3.80;0.87;;;;;;;13.32;82.79;101383.56;5034194;28;20434;-76
2022/09/03 02:09:18;;;;;;;3.30;1.03;;;;;;;13.30;82.83;101385.78;5033729;28;20478;-75
2022/09/03 02:11:49;;;;;;;3.43;0.90;;;;;;;13.29;82.25;101389.63;5033955;28;20473;-76
2022/09/03 02:14:16;;;;;;;5.30;1.10;;;;;;;13.24;82.60;101392.44;5034264;28;20432;-76
2022/09/03 02:16:44;;;;;;;3.80;1.20;;;;;;;13.23;82.74;101391.59;5035319;28;20504;-77
2022/09/03 02:19:16;;;;;;;3.40;1.03;;;;;;;13.18;83.39;101390.88;5034930;28;20521;-77
2022/09/03 02:21:47;;;;;;;4.00;1.17;;;;;;;13.08;83.83;101391.84;5034942;28;20428;-77
2022/09/03 02:24:14;;;;;;;4.00;1.37;;;;;;;13.06;84.29;101385.91;5035165;28;20431;-77
2022/09/03 02:26:40;;;;;;;2.90;0.80;;;;;;;13.04;84.54;101385.38;5035165;28;20444;-77
2022/09/03 02:29:07;;;;;;;3.83;1.03;;;;;;;13.00;85.01;101387.09;5034455;28;20474;-76
2022/09/03 02:31:34;;;;;;;4.40;1.10;;;;;;;12.94;84.99;101394.53;5033985;28;20471;-76
2022/09/03 02:34:01;;;;;;;4.20;1.03;;;;;;;12.87;85.37;101396.81;5034730;28;20443;-78
2022/09/03 02:36:32;;;;;;;4.67;1.30;;;;;;;12.82;85.65;101394.97;5034959;28;20493;-77
2022/09/03 02:38:59;;;;;;;4.90;0.97;;;;;;;12.83;85.67;101393.06;5034233;28;20495;-77
2022/09/03 02:41:26;;;;;;;4.00;1.13;;;;;;;12.79;86.28;101383.88;5034153;28;20439;-76
2022/09/03 02:43:59;;;;;;;5.83;1.53;;;;;;;12.72;86.28;101380.75;5035639;28;20455;-79
2022/09/03 02:46:39;;;;;;;6.97;1.13;;;;;;;12.62;86.53;101387.16;5035791;28;20462;-78
2022/09/03 02:49:06;;;;;;;3.63;1.17;;;;;;;12.64;87.10;101395.81;5036296;28;20467;-78
2022/09/03 02:51:35;;;;;;;4.60;0.90;;;;;;;12.57;87.24;101384.50;5034490;28;20447;-74
2022/09/03 02:56:42;;;;;;;3.70;1.10;;;;;;;12.45;87.43;101387.66;5031370;28;20437;-73
2022/09/03 02:59:09;;;;;;;4.90;1.77;;;;;;;12.42;87.85;101387.44;5033755;28;20494;-78
2022/09/03 03:01:36;;;;;;;5.20;1.20;;;;;;;12.43;88.27;101389.84;5033838;28;20466;-75
2022/09/03 03:04:03;;;;;;;3.97;1.60;;;;;;;12.34;88.50;101386.97;5031162;28;20542;-74
2022/09/03 03:06:29;;;;;;;3.17;0.77;;;;;;;12.43;87.89;101389.03;5031148;28;20526;-76
2022/09/03 03:08:57;;;;;;;4.10;1.27;;;;;;;12.48;87.50;101383.53;5031011;28;20474;-75
2022/09/03 03:11:25;;;;;;;7.43;1.23;;;;;;;12.45;87.60;101395.00;5031186;28;21075;-75
2022/09/03 03:13:51;;;;;;;3.50;0.97;;;;;;;12.44;87.57;101385.22;5031311;28;20991;-75
2022/09/03 03:16:18;;;;;;;3.60;1.13;;;;;;;12.56;87.12;101391.03;5031191;28;20990;-75
2022/09/03 03:18:45;;;;;;;3.30;1.00;;;;;;;12.61;86.58;101386.31;5030784;28;20513;-75
2022/09/03 03:21:14;;;;;;;3.63;1.30;;;;;;;12.61;86.21;101390.94;5031019;28;20475;-75
2022/09/03 03:23:41;;;;;;;3.73;1.10;;;;;;;12.67;85.90;101383.56;5030968;28;20827;-75
2022/09/03 03:26:11;;;;;;;4.80;1.23;;;;;;;12.68;86.06;101388.69;5030938;28;20469;-75
2022/09/03 03:28:38;;;;;;;3.60;1.17;;;;;;;12.63;85.50;101388.75;5032557;28;20969;-75
2022/09/03 03:31:08;;;;;;;4.03;1.40;;;;;;;12.63;85.27;101395.00;5033290;28;20454;-75
2022/09/03 03:33:35;;;;;;;3.83;1.17;;;;;;;12.59;85.31;101393.97;5033204;28;20446;-76
2022/09/03 03:36:05;;;;;;;4.60;1.30;;;;;;;12.65;84.70;101391.97;5033167;28;20443;-75
2022/09/03 03:38:31;;;;;;;3.77;1.20;;;;;;;12.67;84.53;101387.06;5032769;28;20995;-75
2022/09/03 03:40:58;;;;;;;3.60;1.13;;;;;;;12.67;84.71;101395.22;5033377;28;20462;-75
2022/09/03 03:43:25;;;;;;;3.50;1.10;;;;;;;12.69;84.65;101398.44;5037223;28;20458;-75
2022/09/03 03:45:57;;;;;;;3.40;1.10;;;;;;;12.67;84.03;101403.38;5037084;28;20439;-75
2022/09/03 03:48:24;;;;;;;4.23;1.13;;;;;;;12.67;84.20;101405.28;5036902;28;20466;-75
2022/09/03 03:50:50;;;;;;;4.47;0.90;;;;;;;12.64;84.31;101403.97;5036613;28;20497;-75
2022/09/03 03:53:17;;;;;;;3.33;1.00;;;;;;;12.65;84.32;101399.34;5036763;28;20427;-75
2022/09/03 03:55:43;;;;;;;4.33;1.30;;;;;;;12.68;83.87;101407.72;5036844;28;20546;-75
2022/09/03 03:58:10;;;;;;;3.63;1.43;;;;;;;12.69;83.52;101403.06;5036574;28;20524;-75
2022/09/03 04:00:38;;;;;;;8.70;1.40;;;;;;;12.69;83.33;101403.88;5036386;28;20506;-75
2022/09/03 04:03:04;;;;;;;5.67;1.20;;;;;;;12.67;83.81;101399.84;5036638;28;20447;-75
2022/09/03 04:05:31;;;;;;;3.00;0.93;;;;;;;12.70;84.13;101399.25;5036262;28;20940;-76
2022/09/03 04:08:01;;;;;;;3.20;0.87;;;;;;;12.71;84.38;101412.56;5036281;28;20513;-76
2022/09/03 04:10:27;;;;;;;4.80;1.17;;;;;;;12.71;84.33;101401.69;5036652;28;20454;-77
2022/09/03 04:12:55;;;;;;;3.33;1.00;;;;;;;12.72;83.60;101403.31;5036514;28;20453;-77
2022/09/03 04:15:21;;;;;;;4.37;1.10;;;;;;;12.73;83.25;101399.47;5036872;28;20459;-76
2022/09/03 04:17:49;;;;;;;3.73;1.20;;;;;;;12.79;83.50;101409.19;5036702;28;20447;-76
2022/09/03 04:20:16;;;;;;;3.40;1.17;;;;;;;12.83;83.59;101409.38;5036304;28;20581;-76
2022/09/03 04:22:42;;;;;;;3.77;1.30;;;;;;;12.83;83.62;101399.31;5036426;28;20447;-77
2022/09/03 04:25:09;;;;;;;4.17;1.30;;;;;;;12.93;83.43;101403.00;5037632;28;20443;-77
2022/09/03 04:27:35;;;;;;;7.03;1.00;;;;;;;13.02;82.74;101395.78;5037387;28;20861;-76
2022/09/03 04:30:02;;;;;;;4.47;1.30;;;;;;;13.09;82.79;101396.19;5037116;28;20455;-77
2022/09/03 04:35:14;;;;;;;3.43;1.10;;;;;;;13.21;82.49;101398.44;5038161;28;20430;-77
2022/09/03 04:37:41;;;;;;;3.33;0.90;;;;;;;13.27;82.00;101391.81;5037769;28;20535;-76
2022/09/03 04:40:08;;;;;;;3.63;1.27;;;;;;;13.30;81.90;101392.03;5038367;28;20488;-77
2022/09/03 04:42:34;;;;;;;3.83;1.27;;;;;;;13.28;82.01;101394.25;5039789;28;20439;-77
2022/09/03 04:45:01;;;;;;;3.63;1.20;;;;;;;13.30;81.69;101402.13;5038136;28;20450;-77
2022/09/03 04:47:27;;;;;;;5.33;1.70;;;;;;;13.37;81.87;101402.53;5038260;28;20439;-77
2022/09/03 04:49:54;;;;;;;4.50;1.17;;;;;;;13.42;80.97;101396.19;5037637;28;20459;-77
2022/09/03 04:52:23;;;;;;;3.83;1.27;;;;;;;13.45;80.99;101398.31;5037272;28;20450;-77
2022/09/03 04:54:49;;;;;;;9.53;1.50;;;;;;;13.46;80.48;101391.75;5036837;28;20442;-77
2022/09/03 04:57:16;;;;;;;4.43;1.40;;;;;;;13.49;79.79;101402.03;5037402;28;20511;-77
2022/09/03 04:59:43;;;;;;;11.23;1.70;;;;;;;13.48;80.17;101406.69;5037307;28;20587;-77
2022/09/03 05:02:09;;;;;;;5.43;1.63;;;;;;;13.44;80.42;101399.41;5036555;28;20447;-77
2022/09/03 05:04:36;;;;;;;4.23;1.30;;;;;;;13.45;80.89;101411.91;5035837;28;20451;-76
2022/09/03 05:07:02;;;;;;;3.73;1.40;;;;;;;13.49;81.16;101407.50;5035913;28;20443;-76
2022/09/03 05:09:30;;;;;;;5.17;1.57;;;;;;;13.46;80.75;101408.91;5035521;28;21022;-77
2022/09/03 05:11:57;;;;;;;4.40;1.53;;;;;;;13.46;80.30;101403.47;5035697;28;20443;-77
2022/09/03 05:14:23;;;;;;;8.53;1.40;;;;;;;13.50;80.41;101411.81;5035964;28;20501;-77
2022/09/03 05:16:50;;;;;;;4.90;1.40;;;;;;;13.54;80.63;101410.09;5035775;28;20443;-76
2022/09/03 05:19:16;;;;;;;3.27;1.00;;;;;;;13.56;80.53;101408.72;5035156;28;20486;-75
2022/09/03 05:21:43;;;;;;;3.57;1.10;;;;;;;13.62;80.56;101406.69;5034836;28;20967;-75
2022/09/03 05:24:10;;;;;;;5.83;1.90;;;;;;;13.68;80.60;101412.84;5034899;28;20451;-75
2022/09/03 05:26:39;;;;;;;3.80;1.30;;;;;;;13.70;80.33;101411.44;5034739;28;20959;-75
2022/09/03 05:29:07;;;;;;;4.47;1.57;;;;;;;13.72;80.67;101408.41;5034829;28;20459;-74
2022/09/03 05:31:36;;;;;;;3.30;1.20;;;;;;;13.77;80.59;101405.63;5034836;28;20460;-76
2022/09/03 05:34:04;;;;;;;3.63;1.07;;;;;;;13.78;80.39;101402.59;5034853;28;20451;-75
2022/09/03 05:36:33;;;;;;;5.30;1.60;;;;;;;13.83;80.77;101407.91;5034886;28;20443;-75
2022/09/03 05:39:00;;;;;;;4.90;1.53;;;;;;;13.88;80.52;101402.38;5034382;28;20498;-75
2022/09/03 05:41:28;;;;;;;4.00;1.53;;;;;;;13.91;80.86;101406.41;5034740;28;20439;-75
2022/09/03 05:43:58;;;;;;;5.40;1.60;;;;;;;13.99;80.43;101413.88;5034536;28;20431;-75
2022/09/03 05:46:30;;;;;;;3.30;1.33;;;;;;;14.11;79.81;101407.91;5035006;28;20439;-76
2022/09/03 05:48:57;;;;;;;4.63;1.60;;;;;;;14.19;79.72;101411.84;5034230;28;20562;-72
2022/09/03 05:51:23;;;;;;;3.27;1.17;;;;;;;14.25;79.82;101425.03;5034487;28;20450;-72
2022/09/03 05:53:52;;;;;;;6.43;1.60;;;;;;;14.29;80.04;101423.31;5034547;28;20439;-72
2022/09/03 05:56:20;;;;;;;4.60;1.43;;;;;;;14.35;79.29;101415.84;5034097;28;20937;-74
2022/09/03 05:58:48;;;;;;;6.60;1.80;;;;;;;14.43;78.88;101419.75;5033992;28;20455;-74
2022/09/03 06:01:18;;;;;;;3.73;1.60;;;;;;;14.53;78.17;101422.31;5034415;28;20446;-73
2022/09/03 06:03:47;;;;;;;5.67;1.73;;;;;;;14.60;78.31;101428.94;5034527;28;20447;-77
2022/09/03 06:06:15;;;;;;;4.97;1.60;;;;;;;14.67;78.83;101419.53;5034356;28;20932;-78
2022/09/03 06:08:43;;;;;;;6.47;1.60;;;;;;;14.73;78.51;101421.81;5034445;28;20549;-78
2022/09/03 06:11:11;;;;;;;3.73;1.53;;;;;;;14.83;78.42;101421.59;5035829;28;20443;-76
2022/09/03 06:13:38;;;;;;;7.77;1.40;;;;;;;14.93;78.38;101419.75;5035612;28;20471;-77
2022/09/03 06:16:06;;;;;;;4.50;1.37;;;;;;;14.96;77.91;101422.63;5035415;28;20447;-79
2022/09/03 06:18:35;;;;;;;4.73;1.30;;;;;;;14.97;76.56;101420.75;5036545;28;20463;-78
2022/09/03 06:21:02;;;;;;;4.27;1.60;;;;;;;15.00;76.83;101412.72;5035146;28;20490;-78
2022/09/03 06:23:30;;;;;;;4.77;1.30;;;;;;;15.01;77.30;101411.63;5034932;28;20447;-76
2022/09/03 06:26:01;;;;;;;4.30;1.23;;;;;;;14.97;76.57;101412.56;5033872;28;20447;-74
2022/09/03 06:28:27;;;;;;;6.50;1.50;;;;;;;15.01;76.48;101416.28;5033782;28;20517;-71
2022/09/03 06:30:54;;;;;;;3.00;1.00;;;;;;;15.07;77.28;101426.75;5033496;28;20967;-75
2022/09/03 06:33:22;;;;;;;4.43;1.43;;;;;;;15.19;76.86;101420.75;5033918;28;20447;-75
2022/09/03 06:35:56;;;;;;;6.03;1.57;;;;;;;15.27;76.19;101428.19;5033803;28;20451;-75
2022/09/03 06:38:23;;;;;;;12.43;1.97;;;;;;;15.38;76.63;101432.25;5033593;28;20475;-75
2022/09/03 06:40:52;;;;;;;3.37;1.10;;;;;;;15.47;75.92;101428.75;5033684;28;20954;-72
2022/09/03 06:43:19;;;;;;;3.67;1.40;;;;;;;15.57;75.21;101431.22;5033559;28;20470;-73
2022/09/03 06:45:53;;;;;;;10.00;1.67;;;;;;;15.69;75.45;101431.47;5033719;28;20451;-76
2022/09/03 06:48:20;;;;;;;3.00;0.90;;;;;;;15.83;74.72;101434.91;5034659;28;20470;-77
2022/09/03 06:50:57;;;;;;;3.70;1.07;;;;;;;15.97;73.83;101436.72;5034336;28;20447;-74
2022/09/03 06:53:25;;;;;;;4.13;1.27;;;;;;;16.06;74.66;101432.88;5033266;28;20908;-73
2022/09/03 06:55:56;;;;;;;3.90;1.33;;;;;;;16.21;74.55;101430.84;5033623;28;20545;-73
2022/09/03 06:58:23;;;;;;;7.17;2.00;;;;;;;16.21;72.56;101434.38;5033507;28;20459;-73
2022/09/03 07:00:51;;;;;;;4.33;1.00;;;;;;;16.28;72.05;101434.72;5033444;28;20490;-73
2022/09/03 07:03:18;;;;;;;4.17;1.30;;;;;;;16.42;71.62;101428.28;5033208;28;20819;-73
2022/09/03 07:05:45;;;;;;;4.90;1.20;;;;;;;16.48;71.38;101432.50;5033476;28;20546;-73
2022/09/03 07:08:12;;;;;;;4.13;1.40;;;;;;;16.51;71.12;101432.69;5033192;28;20482;-73
2022/09/03 07:10:39;;;;;;;4.57;1.40;;;;;;;16.61;70.13;101439.75;5033419;28;20442;-74
2022/09/03 07:13:06;;;;;;;3.10;1.00;;;;;;;16.67;70.62;101434.94;5033466;28;20517;-72
2022/09/03 07:15:32;;;;;;;3.70;1.23;;;;;;;16.69;69.65;101435.41;5033557;28;20474;-73
2022/09/03 07:17:59;;;;;;;3.60;1.27;;;;;;;16.81;70.95;101430.94;5037070;28;20440;-73
2022/09/03 07:20:25;;;;;;;4.17;1.23;;;;;;;16.80;69.96;101437.53;5037249;28;20491;-73
2022/09/03 07:22:55;;;;;;;4.13;1.37;;;;;;;16.92;70.68;101444.31;5037303;28;20443;-73
2022/09/03 07:25:23;;;;;;;7.43;1.43;;;;;;;16.97;69.13;101435.94;5037065;28;20794;-73
2022/09/03 07:27:50;;;;;;;4.03;1.00;;;;;;;17.06;69.96;101434.00;5037458;28;20840;-73
2022/09/03 07:30:18;;;;;;;3.53;1.27;;;;;;;17.18;69.81;101444.25;5037455;28;20501;-73
2022/09/03 07:32:45;;;;;;;5.30;1.27;;;;;;;17.24;70.43;101438.31;5037271;28;20466;-73
2022/09/03 07:35:11;;;;;;;3.20;0.90;;;;;;;17.31;69.09;101441.34;5036912;28;20825;-74
2022/09/03 07:37:40;;;;;;;3.40;1.10;;;;;;;17.36;68.92;101437.66;5037214;28;20442;-75
2022/09/03 07:40:08;;;;;;;4.40;1.43;;;;;;;17.37;70.38;101434.56;5036791;28;20493;-75
2022/09/03 07:42:37;;;;;;;4.70;1.53;;;;;;;17.46;69.50;101441.97;5037006;28;20447;-75
2022/09/03 07:45:08;;;;;;;4.00;1.10;;;;;;;17.47;69.77;101435.34;5037065;28;20455;-76
2022/09/03 07:47:35;;;;;;;5.40;1.60;;;;;;;17.49;69.62;101441.31;5036929;28;20443;-75
2022/09/03 07:50:02;;;;;;;3.90;1.00;;;;;;;17.48;66.05;101448.72;5036794;28;21014;-74
2022/09/03 07:52:29;;;;;;;5.93;1.00;;;;;;;17.55;67.79;101442.75;5036753;28;20454;-76
2022/09/03 07:54:55;;;;;;;3.33;1.00;;;;;;;17.67;67.79;101451.09;5036485;28;20439;-76
2022/09/03 07:57:21;;;;;;;6.47;1.13;;;;;;;17.80;69.05;101454.78;5036674;28;20450;-76
2022/09/03 07:59:49;;;;;;;5.33;1.53;;;;;;;17.88;68.40;101448.44;5036501;28;20494;-75
2022/09/03 08:02:16;;;;;;;3.50;0.80;;;;;;;17.94;65.76;101451.81;5036785;28;20884;-73
2022/09/03 08:04:42;;;;;;;4.93;1.13;;;;;;;17.96;65.09;101450.34;5036551;28;20461;-72
2022/09/03 08:07:09;;;;;;;4.10;1.03;;;;;;;17.99;65.84;101448.88;5036367;28;20446;-73
2022/09/03 08:09:35;;;;;;;3.63;0.70;;;;;;;18.05;66.89;101447.56;5036486;28;20463;-72
2022/09/03 08:12:02;;;;;;;3.23;0.83;;;;;;;18.14;66.30;101445.56;5036563;28;20454;-72
2022/09/03 08:14:30;;;;;;;4.10;1.40;;;;;;;18.21;66.52;101447.81;5036440;28;20482;-73
2022/09/03 08:16:58;;;;;;;3.10;0.80;;;;;;;18.27;65.17;101443.72;5036424;28;20568;-72
2022/09/03 08:19:25;;;;;;;3.10;0.80;;;;;;;18.31;64.54;101444.69;5035872;28;20494;-72
2022/09/03 08:21:52;;;;;;;3.60;1.10;;;;;;;18.39;65.83;101441.88;5036262;28;20561;-73
2022/09/03 08:24:20;;;;;;;4.03;1.03;;;;;;;18.49;66.23;101448.09;5036337;28;20447;-72
2022/09/03 08:26:46;;;;;;;3.50;1.00;;;;;;;18.60;65.57;101441.09;5035848;28;20478;-72
2022/09/03 08:29:13;;;;;;;2.90;0.77;;;;;;;18.74;65.19;101449.09;5036113;28;20913;-72
2022/09/03 08:31:39;;;;;;;3.73;1.00;;;;;;;18.84;63.44;101444.00;5036195;28;20819;-73
2022/09/03 08:34:10;;;;;;;3.33;1.00;;;;;;;18.92;62.77;101436.03;5036176;28;20449;-72
2022/09/03 08:36:40;;;;;;;10.90;1.20;;;;;;;19.06;61.84;101442.03;5036100;28;20436;-72
2022/09/03 08:39:09;;;;;;;3.57;1.20;;;;;;;19.11;61.86;101439.88;5035851;28;20455;-72
2022/09/03 08:41:44;;;;;;;5.00;0.97;;;;;;;19.16;62.64;101438.84;5035657;28;20540;-72
2022/09/03 08:44:23;;;;;;;3.00;0.90;;;;;;;19.25;61.97;101439.56;5035898;28;20427;-73
2022/09/03 08:46:55;;;;;;;2.90;0.90;;;;;;;19.28;63.13;101430.66;5035803;28;20431;-73
2022/09/03 08:49:27;;;;;;;3.83;1.20;;;;;;;19.24;63.39;101423.44;5035927;28;20462;-73
2022/09/03 08:51:56;;;;;;;2.80;0.80;;;;;;;19.13;60.60;101420.31;5035816;28;20426;-73
2022/09/03 08:54:26;;;;;;;3.50;1.00;;;;;;;19.13;63.31;101426.63;5035619;28;20435;-73
2022/09/03 08:56:55;;;;;;;3.50;0.93;;;;;;;19.03;62.79;101431.72;5035586;28;20439;-73
2022/09/03 08:59:22;;;;;;;4.17;1.00;;;;;;;18.93;64.30;101421.16;5035657;28;20641;-73
2022/09/03 09:01:55;;;;;;;3.27;1.00;;;;;;;18.86;63.38;101425.25;5035191;28;21041;-73
2022/09/03 09:04:33;;;;;;;4.10;1.00;;;;;;;18.83;64.47;101422.38;5035567;28;20489;-73
2022/09/03 09:07:10;;;;;;;3.00;0.80;;;;;;;18.87;63.55;101417.81;5035381;28;20457;-73
2022/09/03 09:09:47;;;;;;;3.83;0.70;;;;;;;18.88;62.95;101425.72;5035057;28;21019;-73
2022/09/03 09:12:22;;;;;;;3.63;1.20;;;;;;;18.89;62.04;101416.31;5035376;28;20789;-73
2022/09/03 09:15:00;;;;;;;4.43;1.20;;;;;;;18.92;61.48;101408.56;5035235;28;20423;-73
2022/09/03 09:17:43;;;;;;;3.67;1.13;;;;;;;18.93;61.75;101412.91;5035171;28;20431;-73
2022/09/03 09:20:18;;;;;;;3.20;0.90;;;;;;;18.98;61.24;101413.50;5035073;28;20963;-73
2022/09/03 09:22:49;;;;;;;3.60;1.20;;;;;;;19.04;59.57;101412.16;5035114;28;20427;-72
2022/09/03 09:25:19;;;;;;;3.40;0.80;;;;;;;19.09;59.77;101414.69;5034761;28;20959;-72
2022/09/03 09:27:51;;;;;;;2.73;0.67;;;;;;;19.16;61.10;101416.88;5034549;28;20959;-74
2022/09/03 09:30:19;;;;;;;3.83;1.00;;;;;;;19.27;60.52;101407.09;5035089;28;20424;-73
2022/09/03 09:32:46;;;;;;;3.33;1.03;;;;;;;19.27;56.84;101401.59;5034979;28;20470;-73
2022/09/03 09:35:17;;;;;;;4.57;1.43;;;;;;;19.31;58.40;101407.22;5034787;28;20507;-72
2022/09/03 09:37:48;;;;;;;4.40;0.83;;;;;;;19.37;58.15;101406.63;5034755;28;20463;-73
2022/09/03 09:40:25;;;;;;;3.20;0.73;;;;;;;19.54;58.56;101404.84;5033758;28;20442;-73
2022/09/03 09:42:57;;;;;;;3.50;0.93;;;;;;;19.57;57.38;101402.22;5034720;28;20451;-73
2022/09/03 09:45:24;;;;;;;3.00;0.73;;;;;;;19.59;55.73;101390.88;5034900;28;20435;-73
2022/09/03 09:47:56;;;;;;;3.00;0.90;;;;;;;19.64;55.71;101404.41;5034623;28;20439;-72
2022/09/03 09:50:24;;;;;;;3.87;1.30;;;;;;;19.74;56.67;101395.69;5034584;28;20452;-73
2022/09/03 09:53:01;;;;;;;3.93;1.17;;;;;;;19.80;55.96;101399.06;5034341;28;20443;-72
2022/09/03 09:55:28;;;;;;;5.40;1.53;;;;;;;19.89;55.14;101397.78;5034446;28;20438;-73
2022/09/03 09:58:07;;;;;;;3.60;1.10;;;;;;;20.01;55.88;101396.16;5034060;28;20435;-73
2022/09/03 10:00:36;;;;;;;3.50;1.10;;;;;;;20.07;54.53;101392.03;5034270;28;20470;-72
2022/09/03 10:03:09;;;;;;;2.70;0.70;;;;;;;20.15;53.78;101383.66;5033998;28;20450;-72
2022/09/03 10:05:39;;;;;;;3.53;0.77;;;;;;;20.25;53.81;101387.88;5034285;28;20447;-71
2022/09/03 10:08:18;;;;;;;5.37;0.77;;;;;;;20.25;52.75;101376.06;5033803;28;20514;-73
2022/09/03 10:10:48;;;;;;;2.90;0.80;;;;;;;20.38;54.45;101378.44;5034193;28;20801;-72
2022/09/03 10:13:20;;;;;;;3.00;0.87;;;;;;;20.49;52.66;101375.22;5034218;28;20428;-73
2022/09/03 10:15:51;;;;;;;3.00;0.87;;;;;;;20.54;51.04;101378.56;5033814;28;20900;-72
2022/09/03 10:18:27;;;;;;;3.03;0.70;;;;;;;20.62;49.71;101379.53;5034160;28;20462;-73
2022/09/03 10:21:05;;;;;;;3.33;1.00;;;;;;;20.75;50.10;101372.84;5034053;28;20467;-73
2022/09/03 10:23:36;;;;;;;3.00;0.80;;;;;;;20.92;49.57;101375.28;5034165;28;20434;-73
2022/09/03 10:26:08;;;;;;;3.00;0.60;;;;;;;21.03;48.81;101380.28;5033992;28;20431;-73
2022/09/03 10:28:40;;;;;;;3.67;0.87;;;;;;;21.10;47.45;101383.22;5033849;28;20877;-73
2022/09/03 10:31:33;;;;;;;3.23;0.87;;;;;;;21.12;46.43;101376.22;5034192;28;20439;-73
2022/09/03 10:34:06;;;;;;;2.90;0.70;;;;;;;21.24;47.42;101369.81;5033836;28;20515;-73
2022/09/03 10:36:42;;;;;;;3.50;0.90;;;;;;;21.39;48.26;101371.03;5033811;28;20501;-74
2022/09/03 10:39:15;;;;;;;3.50;0.77;;;;;;;21.52;47.57;101367.03;5033805;28;20482;-73
2022/09/03 10:41:58;;;;;;;2.90;0.73;;;;;;;21.63;45.87;101372.78;5033551;28;20467;-73
2022/09/03 10:44:38;;;;;;;3.30;0.87;;;;;;;21.78;45.46;101365.66;5033892;28;20526;-72
2022/09/03 10:47:20;;;;;;;2.90;0.90;;;;;;;21.98;45.07;101363.75;5033560;28;20431;-73
2022/09/03 10:49:54;;;;;;;2.90;0.63;;;;;;;22.19;46.44;101369.78;5033720;28;20478;-73
2022/09/03 10:52:29;;;;;;;4.50;0.80;;;;;;;22.08;44.21;101363.19;5032489;28;20431;-73
2022/09/03 10:55:12;;;;;;;3.00;0.60;;;;;;;22.12;42.19;101364.09;5033695;28;20427;-73
2022/09/03 10:57:48;;;;;;;3.37;1.10;;;;;;;22.18;42.04;101362.69;5033561;28;20435;-73
2022/09/03 11:00:17;;;;;;;3.27;1.07;;;;;;;22.16;42.59;101359.47;5034912;28;20438;-73
2022/09/03 11:02:57;;;;;;;2.80;0.77;;;;;;;22.14;42.68;101359.03;5033346;28;20515;-72
2022/09/03 11:05:31;;;;;;;3.07;0.87;;;;;;;22.25;44.79;101360.06;5033528;28;20434;-73
2022/09/03 11:08:05;;;;;;;2.80;0.60;;;;;;;22.39;44.04;101354.84;5033334;28;20463;-73
2022/09/03 11:10:34;;;;;;;2.80;0.77;;;;;;;22.44;43.43;101356.50;5033398;28;20435;-74
2022/09/03 11:13:07;;;;;;;2.93;0.77;;;;;;;22.56;43.21;101350.03;5033133;28;20443;-73
2022/09/03 11:15:38;;;;;;;2.90;0.80;;;;;;;22.84;42.53;101353.38;5033393;28;20436;-74
2022/09/03 11:18:16;;;;;;;2.93;0.93;;;;;;;24.06;42.37;101350.69;5033495;28;20465;-73
2022/09/03 11:20:44;;;;;;;3.80;1.10;;;;;;;24.63;41.50;101353.41;5033197;28;20412;-74
2022/09/03 11:23:13;;;;;;;3.10;1.00;;;;;;;25.25;40.82;101350.09;5033530;28;20497;-73
2022/09/03 11:25:44;;;;;;;3.13;0.90;;;;;;;26.33;39.07;101347.66;5033265;28;20505;-72
2022/09/03 11:28:22;;;;;;;3.00;0.90;;;;;;;26.27;37.70;101351.22;5033422;28;20471;-73
2022/09/03 11:31:03;;;;;;;2.50;0.60;;;;;;;25.94;39.13;101352.22;5033268;28;20419;-72
2022/09/03 11:33:34;;;;;;;3.23;0.70;;;;;;;26.03;38.44;101333.22;5033317;28;20442;-73
2022/09/03 11:36:01;;;;;;;3.03;1.10;;;;;;;25.84;39.12;101335.09;5033270;28;20466;-72
2022/09/03 11:38:30;;;;;;;2.80;0.97;;;;;;;25.57;39.68;101331.72;5033056;28;20835;-72
2022/09/03 11:41:01;;;;;;;3.33;0.70;;;;;;;25.24;40.14;101329.91;5033466;28;20486;-73
2022/09/03 11:43:29;;;;;;;2.90;0.80;;;;;;;25.50;40.81;101326.16;5033109;28;20454;-72
2022/09/03 11:46:10;;;;;;;2.80;0.67;;;;;;;25.72;39.50;101327.09;5033158;28;20575;-72